createdAt,value
2023-03-08T00:02:17.889Z,8.50
2023-03-08T00:04:44.669Z,10.67
2023-03-08T00:07:11.474Z,8.17
2023-03-08T00:09:38.960Z,6.33
2023-03-08T00:12:07.456Z,6.73
2023-03-08T00:14:34.211Z,6.83
2023-03-08T00:17:02.533Z,7.53
2023-03-08T00:19:29.508Z,5.90
2023-03-08T00:21:56.420Z,6.30
2023-03-08T00:24:23.217Z,7.20
2023-03-08T00:26:49.929Z,8.10
2023-03-08T00:29:16.714Z,5.57
2023-03-08T00:31:43.540Z,10.40
2023-03-08T00:34:10.341Z,10.83
2023-03-08T00:36:37.050Z,6.60
2023-03-08T00:39:03.886Z,7.20
2023-03-08T00:41:30.693Z,8.53
2023-03-08T00:43:57.413Z,7.53
2023-03-08T00:46:25.985Z,6.73
2023-03-08T00:48:52.782Z,6.07
2023-03-08T00:51:20.564Z,6.10
2023-03-08T00:53:47.877Z,5.00
2023-03-08T00:56:14.723Z,5.20
2023-03-08T00:58:42.177Z,5.17
2023-03-08T01:01:14.170Z,5.17
2023-03-08T01:03:41.131Z,5.97
2023-03-08T01:06:10.853Z,3.63
2023-03-08T01:08:39.973Z,4.67
2023-03-08T01:11:06.780Z,3.43
2023-03-08T01:13:35.782Z,4.07
2023-03-08T01:16:03.064Z,2.87
2023-03-08T01:18:29.751Z,4.97
2023-03-08T01:21:02.532Z,4.03
2023-03-08T01:23:29.564Z,2.67
2023-03-08T01:26:04.828Z,2.50
2023-03-08T01:28:31.874Z,3.40
2023-03-08T01:31:09.617Z,4.33
2023-03-08T01:33:36.345Z,4.13
2023-03-08T01:36:07.757Z,2.33
2023-03-08T01:38:35.284Z,5.20
2023-03-08T01:41:02.979Z,6.33
2023-03-08T01:43:33.815Z,4.17
2023-03-08T01:46:06.455Z,10.53
2023-03-08T01:48:44.248Z,3.30
2023-03-08T01:51:14.430Z,5.93
2023-03-08T01:53:42.446Z,3.93
2023-03-08T01:56:12.862Z,3.77
2023-03-08T01:58:41.920Z,2.30
2023-03-08T02:01:08.781Z,3.37
2023-03-08T02:03:35.552Z,3.50
2023-03-08T02:06:04.089Z,3.13
2023-03-08T02:08:32.952Z,3.13
2023-03-08T02:11:00.656Z,2.30
2023-03-08T02:13:28.187Z,2.17
2023-03-08T02:15:57.231Z,2.07
2023-03-08T02:18:24.145Z,1.93
2023-03-08T02:20:50.867Z,1.70
2023-03-08T02:23:19.043Z,4.83
2023-03-08T02:25:56.648Z,3.23
2023-03-08T02:28:25.989Z,1.60
2023-03-08T02:30:53.777Z,3.60
2023-03-08T02:33:20.599Z,3.23
2023-03-08T02:35:47.397Z,4.17
2023-03-08T02:38:17.754Z,3.47
2023-03-08T02:40:45.226Z,3.13
2023-03-08T02:43:12.176Z,3.43
2023-03-08T02:45:38.916Z,4.17
2023-03-08T02:48:06.483Z,2.40
2023-03-08T02:50:33.206Z,2.87
2023-03-08T02:52:59.906Z,2.33
2023-03-08T02:55:27.419Z,2.40
2023-03-08T02:57:54.328Z,2.87
2023-03-08T03:00:21.289Z,4.67
2023-03-08T03:02:48.554Z,4.23
2023-03-08T03:05:15.274Z,4.60
2023-03-08T03:07:43.356Z,2.93
2023-03-08T03:10:12.246Z,3.50
2023-03-08T03:12:39.842Z,7.30
2023-03-08T03:15:08.815Z,4.17
2023-03-08T03:17:36.968Z,4.37
2023-03-08T03:20:09.270Z,3.87
2023-03-08T03:22:36.720Z,2.93
2023-03-08T03:25:04.142Z,3.80
2023-03-08T03:27:30.866Z,6.87
2023-03-08T03:29:57.620Z,5.43
2023-03-08T03:32:24.497Z,4.93
2023-03-08T03:34:51.340Z,4.43
2023-03-08T03:37:18.221Z,4.00
2023-03-08T03:39:45.071Z,4.70
2023-03-08T03:42:11.978Z,5.73
2023-03-08T03:44:38.798Z,6.27
2023-03-08T03:47:06.095Z,5.57
2023-03-08T03:49:32.818Z,7.90
2023-03-08T03:51:59.785Z,7.43
2023-03-08T03:54:27.424Z,7.60
2023-03-08T03:56:58.077Z,6.17
2023-03-08T03:59:26.721Z,8.20
2023-03-08T04:01:53.596Z,7.90
2023-03-08T04:04:20.560Z,9.40
2023-03-08T04:06:47.821Z,9.73
2023-03-08T04:09:16.986Z,8.53
2023-03-08T04:11:43.762Z,8.37
2023-03-08T04:14:10.586Z,9.57
2023-03-08T04:16:39.986Z,10.13
2023-03-08T04:19:15.735Z,9.23
2023-03-08T04:21:42.810Z,7.53
2023-03-08T04:24:09.589Z,9.93
2023-03-08T04:26:36.384Z,11.40
2023-03-08T04:29:06.130Z,11.60
2023-03-08T04:31:35.110Z,11.43
2023-03-08T04:34:03.173Z,12.73
2023-03-08T04:36:30.459Z,14.00
2023-03-08T04:38:57.382Z,11.70
2023-03-08T04:41:26.284Z,11.57
2023-03-08T04:43:55.106Z,11.60
2023-03-08T04:46:27.887Z,10.87
2023-03-08T04:48:56.202Z,10.63
2023-03-08T04:51:26.876Z,13.27
2023-03-08T04:53:54.094Z,11.90
2023-03-08T04:56:20.914Z,14.07
2023-03-08T04:58:47.862Z,9.77
2023-03-08T05:01:17.620Z,10.27
2023-03-08T05:03:45.449Z,10.83
2023-03-08T05:06:14.273Z,12.27
2023-03-08T05:08:41.616Z,12.40
2023-03-08T05:11:08.933Z,14.10
2023-03-08T05:13:38.522Z,9.97
2023-03-08T05:16:06.997Z,11.00
2023-03-08T05:18:34.083Z,12.00
2023-03-08T05:21:04.454Z,11.80
2023-03-08T05:23:31.932Z,13.03
2023-03-08T05:26:00.387Z,9.27
2023-03-08T05:28:30.074Z,12.80
2023-03-08T05:31:11.978Z,11.03
2023-03-08T05:33:39.741Z,11.10
2023-03-08T05:36:07.893Z,12.90
2023-03-08T05:38:35.079Z,10.17
2023-03-08T05:41:09.327Z,11.43
2023-03-08T05:43:36.106Z,19.53
2023-03-08T05:46:06.888Z,8.40
2023-03-08T05:48:35.417Z,10.60
2023-03-08T05:51:10.168Z,9.97
2023-03-08T05:53:37.204Z,13.17
2023-03-08T05:56:12.220Z,17.90
2023-03-08T05:58:41.463Z,12.57
2023-03-08T06:01:18.112Z,12.17
2023-03-08T06:03:46.510Z,15.57
2023-03-08T06:06:13.708Z,10.50
2023-03-08T06:08:40.827Z,12.80
2023-03-08T06:11:07.862Z,12.13
2023-03-08T06:13:35.144Z,15.17
2023-03-08T06:16:02.924Z,13.57
2023-03-08T06:18:29.697Z,12.17
2023-03-08T06:21:01.610Z,11.47
2023-03-08T06:23:30.148Z,14.53
2023-03-08T06:25:57.708Z,12.37
2023-03-08T06:28:25.868Z,8.70
2023-03-08T06:30:53.313Z,13.30
2023-03-08T06:33:22.290Z,10.73
2023-03-08T06:35:59.655Z,13.03
2023-03-08T06:38:29.676Z,13.17
2023-03-08T06:40:57.080Z,12.07
2023-03-08T06:43:25.663Z,13.33
2023-03-08T06:45:52.510Z,8.23
2023-03-08T06:48:19.853Z,11.67
2023-03-08T06:50:47.098Z,9.63
2023-03-08T06:53:14.314Z,10.07
2023-03-08T06:55:41.902Z,10.57
2023-03-08T06:58:09.732Z,12.00
2023-03-08T07:00:36.656Z,10.37
2023-03-08T07:03:03.458Z,10.17
2023-03-08T07:05:30.160Z,13.50
2023-03-08T07:07:56.939Z,11.57
2023-03-08T07:10:23.946Z,10.70
2023-03-08T07:12:51.611Z,11.80
2023-03-08T07:15:22.994Z,12.40
2023-03-08T07:17:52.224Z,10.30
2023-03-08T07:20:20.357Z,8.77
2023-03-08T07:22:47.422Z,10.57
2023-03-08T07:25:16.324Z,13.50
2023-03-08T07:27:43.639Z,13.73
2023-03-08T07:30:12.402Z,8.70
2023-03-08T07:32:40.891Z,7.13
2023-03-08T07:35:09.894Z,9.50
2023-03-08T07:37:36.964Z,11.60
2023-03-08T07:40:07.646Z,9.30
2023-03-08T07:42:34.583Z,10.37
2023-03-08T07:45:01.324Z,12.53
2023-03-08T07:47:28.136Z,12.23
2023-03-08T07:49:54.854Z,11.73
2023-03-08T07:52:21.593Z,12.63
2023-03-08T07:54:48.347Z,11.43
2023-03-08T07:57:15.736Z,7.70
2023-03-08T07:59:42.464Z,8.60
2023-03-08T08:02:15.507Z,10.57
2023-03-08T08:04:42.477Z,8.90
2023-03-08T08:07:13.323Z,9.77
2023-03-08T08:09:40.181Z,8.17
2023-03-08T08:12:07.145Z,14.23
2023-03-08T08:14:33.916Z,10.00
2023-03-08T08:17:00.907Z,10.33
2023-03-08T08:19:27.717Z,8.37
2023-03-08T08:21:54.453Z,8.50
2023-03-08T08:24:21.169Z,9.07
2023-03-08T08:26:47.941Z,8.23
2023-03-08T08:29:14.925Z,9.53
2023-03-08T08:31:41.745Z,6.43
2023-03-08T08:34:08.853Z,11.40
2023-03-08T08:36:35.772Z,7.90
2023-03-08T08:39:02.950Z,8.80
2023-03-08T08:41:30.557Z,9.07
2023-03-08T08:43:59.542Z,6.53
2023-03-08T08:46:31.749Z,7.93
2023-03-08T08:48:59.155Z,7.63
2023-03-08T08:51:26.443Z,4.67
2023-03-08T08:53:54.196Z,8.03
2023-03-08T08:56:27.100Z,7.33
2023-03-08T08:59:04.807Z,12.43
2023-03-08T09:01:34.427Z,7.67
2023-03-08T09:04:01.206Z,9.13
2023-03-08T09:06:29.265Z,8.83
2023-03-08T09:08:58.239Z,7.40
2023-03-08T09:11:26.276Z,8.83
2023-03-08T09:13:53.957Z,7.60
2023-03-08T09:16:27.981Z,5.57
2023-03-08T09:18:58.822Z,6.77
2023-03-08T09:21:26.897Z,7.57
2023-03-08T09:23:54.094Z,9.03
2023-03-08T09:26:21.179Z,6.80
2023-03-08T09:28:48.095Z,7.63
2023-03-08T09:31:17.085Z,9.40
2023-03-08T09:33:46.871Z,6.40
2023-03-08T09:36:13.606Z,4.73
2023-03-08T09:38:40.839Z,7.13
2023-03-08T09:41:21.715Z,5.43
2023-03-08T09:44:04.955Z,7.77
2023-03-08T09:46:38.412Z,11.60
2023-03-08T09:49:13.439Z,6.20
2023-03-08T09:51:44.480Z,7.43
2023-03-08T09:54:17.118Z,6.77
2023-03-08T09:56:51.530Z,10.50
2023-03-08T09:59:26.858Z,7.10
2023-03-08T10:01:59.065Z,5.23
2023-03-08T10:05:09.829Z,7.83
2023-03-08T10:07:48.573Z,7.03
2023-03-08T10:10:38.054Z,8.03
2023-03-08T10:13:23.640Z,7.97
2023-03-08T10:15:53.977Z,5.33
2023-03-08T10:18:47.022Z,12.00
2023-03-08T10:21:17.493Z,7.80
2023-03-08T10:23:52.610Z,5.80
2023-03-08T10:26:19.973Z,6.07
2023-03-08T10:28:46.753Z,9.87
2023-03-08T10:31:24.850Z,7.30
2023-03-08T10:33:58.457Z,7.80
2023-03-08T10:36:26.175Z,10.80
2023-03-08T10:39:05.300Z,8.43
2023-03-08T10:41:36.853Z,10.77
2023-03-08T10:44:04.066Z,6.77
2023-03-08T10:46:32.911Z,7.47
2023-03-08T10:49:14.735Z,8.97
2023-03-08T10:51:52.389Z,8.47
2023-03-08T10:54:19.085Z,9.80
2023-03-08T10:56:53.547Z,9.30
2023-03-08T10:59:28.098Z,7.97
2023-03-08T11:02:00.105Z,7.20
2023-03-08T11:04:29.727Z,6.33
2023-03-08T11:06:56.848Z,9.40
2023-03-08T11:09:29.407Z,12.07
2023-03-08T11:11:58.298Z,10.03
2023-03-08T11:14:27.961Z,9.73
2023-03-08T11:17:15.669Z,7.17
2023-03-08T11:20:06.290Z,7.90
2023-03-08T11:23:02.141Z,5.93
2023-03-08T11:25:50.532Z,8.00
2023-03-08T11:28:44.615Z,5.53
2023-03-08T11:31:24.648Z,6.63
2023-03-08T11:34:16.237Z,4.73
2023-03-08T11:37:16.760Z,6.47
2023-03-08T11:39:48.920Z,4.70
2023-03-08T11:42:20.688Z,9.07
2023-03-08T11:45:02.197Z,4.00
2023-03-08T11:47:53.321Z,8.70
2023-03-08T11:50:23.247Z,6.27
2023-03-08T11:53:16.058Z,6.33
2023-03-08T11:56:07.480Z,7.83
2023-03-08T11:58:42.708Z,10.53
2023-03-08T12:01:32.572Z,5.63
2023-03-08T12:04:08.017Z,5.00
2023-03-08T12:06:45.505Z,5.27
2023-03-08T12:09:12.268Z,6.70
2023-03-08T12:11:44.700Z,5.30
2023-03-08T12:14:23.582Z,5.73
2023-03-08T12:16:56.477Z,6.83
2023-03-08T12:19:46.591Z,5.23
2023-03-08T12:22:25.336Z,5.13
2023-03-08T12:24:54.804Z,6.83
2023-03-08T12:27:43.833Z,7.80
2023-03-08T12:30:10.523Z,7.00
2023-03-08T12:32:39.612Z,9.90
2023-03-08T12:35:28.457Z,7.60
2023-03-08T12:38:20.001Z,5.23
2023-03-08T12:40:51.633Z,6.67
2023-03-08T12:43:21.054Z,5.97
2023-03-08T12:46:09.409Z,4.87
2023-03-08T12:48:46.780Z,8.77
2023-03-08T12:51:14.168Z,7.57
2023-03-08T12:53:56.087Z,6.63
2023-03-08T12:56:50.549Z,7.00
2023-03-08T12:59:17.230Z,6.63
2023-03-08T13:01:59.826Z,10.57
2023-03-08T13:04:41.909Z,7.43
2023-03-08T13:07:20.205Z,10.00
2023-03-08T13:10:21.126Z,10.37
2023-03-08T13:13:38.090Z,6.73
2023-03-08T13:16:32.929Z,8.67
2023-03-08T13:19:15.035Z,5.37
2023-03-08T13:22:00.410Z,8.73
2023-03-08T13:24:42.079Z,7.97
2023-03-08T13:27:39.483Z,6.63
2023-03-08T13:30:30.692Z,6.47
2023-03-08T13:32:58.439Z,6.00
2023-03-08T13:35:25.400Z,7.17
2023-03-08T13:37:58.952Z,7.03
2023-03-08T13:40:28.114Z,7.73
2023-03-08T13:43:00.462Z,10.10
2023-03-08T13:45:27.618Z,8.70
2023-03-08T13:47:57.308Z,9.77
2023-03-08T13:50:36.837Z,6.90
2023-03-08T13:53:10.112Z,17.07
2023-03-08T13:55:44.264Z,6.87
2023-03-08T13:58:31.075Z,5.80
2023-03-08T14:01:02.111Z,6.07
2023-03-08T14:03:31.980Z,6.27
2023-03-08T14:05:59.312Z,10.23
2023-03-08T14:08:27.741Z,10.40
2023-03-08T14:11:05.213Z,8.17
2023-03-08T14:13:38.253Z,9.90
2023-03-08T14:16:09.440Z,9.33
2023-03-08T14:18:39.279Z,7.47
2023-03-08T14:21:14.525Z,9.37
2023-03-08T14:23:46.014Z,9.80
2023-03-08T14:26:38.192Z,7.37
2023-03-08T14:29:13.068Z,8.67
2023-03-08T14:31:51.798Z,10.37
2023-03-08T14:34:21.696Z,7.00
2023-03-08T14:37:00.543Z,8.50
2023-03-08T14:39:29.498Z,8.40
2023-03-08T14:41:56.723Z,11.30
2023-03-08T14:44:28.236Z,8.00
2023-03-08T14:46:58.751Z,7.53
2023-03-08T14:49:28.543Z,11.67
2023-03-08T14:51:55.923Z,7.27
2023-03-08T14:54:38.503Z,6.93
2023-03-08T14:57:28.510Z,10.63
2023-03-08T15:00:07.671Z,10.03
2023-03-08T15:02:35.607Z,6.73
2023-03-08T15:05:02.685Z,7.60
2023-03-08T15:07:33.877Z,10.63
2023-03-08T15:10:02.752Z,12.33
2023-03-08T15:12:29.472Z,10.23
2023-03-08T15:14:56.177Z,8.47
2023-03-08T15:17:22.960Z,7.20
2023-03-08T15:19:49.792Z,11.20
2023-03-08T15:22:17.427Z,8.20
2023-03-08T15:24:44.137Z,6.80
2023-03-08T15:27:15.815Z,10.00
2023-03-08T15:29:42.526Z,11.17
2023-03-08T15:32:09.286Z,10.80
2023-03-08T15:34:36.127Z,9.83
2023-03-08T15:37:02.924Z,11.60
2023-03-08T15:39:29.856Z,10.00
2023-03-08T15:41:56.556Z,9.13
2023-03-08T15:44:23.295Z,10.80
2023-03-08T15:46:52.604Z,9.57
2023-03-08T15:49:19.659Z,12.23
2023-03-08T15:51:46.390Z,9.73
2023-03-08T15:54:13.198Z,11.50
2023-03-08T15:56:39.986Z,11.83
2023-03-08T15:59:06.811Z,13.73
2023-03-08T16:01:33.549Z,18.30
2023-03-08T16:04:00.406Z,11.73
2023-03-08T16:06:27.328Z,15.77
2023-03-08T16:08:54.278Z,12.50
2023-03-08T16:11:22.425Z,14.83
2023-03-08T16:13:51.659Z,15.63
2023-03-08T16:16:19.037Z,14.43
2023-03-08T16:18:46.073Z,15.53
2023-03-08T16:21:12.886Z,14.77
2023-03-08T16:23:41.661Z,16.03
2023-03-08T16:26:17.881Z,14.80
2023-03-08T16:28:46.934Z,14.57
2023-03-08T16:31:15.482Z,18.20
2023-03-08T16:33:42.630Z,19.57
2023-03-08T16:36:10.683Z,11.00
2023-03-08T16:38:37.550Z,13.67
2023-03-08T16:41:13.903Z,17.47
2023-03-08T16:43:47.669Z,21.20
2023-03-08T16:46:20.424Z,18.97
2023-03-08T16:48:54.283Z,19.00
2023-03-08T16:51:23.048Z,17.83
2023-03-08T16:53:49.914Z,23.53
2023-03-08T16:56:24.987Z,19.70
2023-03-08T16:58:53.184Z,23.47
2023-03-08T17:01:21.090Z,24.00
2023-03-08T17:03:48.024Z,24.67
2023-03-08T17:06:17.090Z,21.67
2023-03-08T17:08:43.816Z,23.93
2023-03-08T17:11:19.516Z,23.40
2023-03-08T17:13:51.082Z,28.73
2023-03-08T17:16:20.480Z,36.17
2023-03-08T17:18:48.478Z,22.17
2023-03-08T17:21:15.710Z,32.27
2023-03-08T17:23:42.768Z,27.50
2023-03-08T17:26:11.347Z,23.97
2023-03-08T17:28:39.110Z,25.33
2023-03-08T17:31:14.348Z,29.23
2023-03-08T17:33:41.924Z,32.03
2023-03-08T17:36:09.917Z,26.07
2023-03-08T17:38:37.009Z,25.07
2023-03-08T17:41:08.828Z,26.47
2023-03-08T17:43:35.617Z,31.07
2023-03-08T17:46:05.418Z,30.43
2023-03-08T17:48:33.169Z,28.83
2023-03-08T17:51:12.266Z,22.80
2023-03-08T17:53:39.946Z,26.43
2023-03-08T17:56:09.196Z,22.93
2023-03-08T17:58:36.851Z,22.70
2023-03-08T18:01:30.737Z,21.93
2023-03-08T18:03:58.045Z,23.93
2023-03-08T18:06:34.832Z,19.57
2023-03-08T18:09:08.713Z,22.37
2023-03-08T18:11:37.785Z,21.40
2023-03-08T18:14:06.174Z,24.60
2023-03-08T18:16:33.594Z,24.13
2023-03-08T18:19:02.466Z,22.83
2023-03-08T18:21:31.442Z,26.07
2023-03-08T18:23:58.823Z,29.53
2023-03-08T18:26:25.885Z,27.33
2023-03-08T18:28:52.691Z,18.77
2023-03-08T18:31:23.392Z,20.97
2023-03-08T18:33:50.324Z,19.27
2023-03-08T18:36:18.044Z,25.77
2023-03-08T18:38:45.033Z,24.40
2023-03-08T18:41:17.693Z,25.57
2023-03-08T18:43:45.283Z,23.77
2023-03-08T18:46:13.376Z,26.10
2023-03-08T18:48:40.982Z,22.70
2023-03-08T18:51:07.741Z,24.23
2023-03-08T18:53:34.849Z,27.33
2023-03-08T18:56:03.803Z,23.40
2023-03-08T18:58:31.296Z,23.67
2023-03-08T19:00:59.152Z,30.37
2023-03-08T19:03:27.002Z,28.57
2023-03-08T19:05:53.744Z,24.37
2023-03-08T19:08:20.605Z,27.40
2023-03-08T19:10:47.321Z,28.23
2023-03-08T19:13:14.075Z,30.73
2023-03-08T19:15:40.834Z,29.60
2023-03-08T19:18:07.595Z,27.27
2023-03-08T19:20:39.179Z,29.97
2023-03-08T19:23:06.071Z,27.90
2023-03-08T19:25:34.554Z,34.23
2023-03-08T19:28:01.282Z,48.40
2023-03-08T19:30:28.538Z,37.00
2023-03-08T19:32:56.510Z,32.30
2023-03-08T19:35:23.699Z,31.33
2023-03-08T19:37:50.652Z,33.30
2023-03-08T19:40:17.833Z,39.13
2023-03-08T19:42:44.576Z,28.90
2023-03-08T19:45:12.136Z,32.37
2023-03-08T19:47:38.944Z,33.77
2023-03-08T19:50:06.096Z,36.83
2023-03-08T19:52:33.062Z,59.53
2023-03-08T19:54:59.860Z,40.93
2023-03-08T19:57:26.844Z,29.63
2023-03-08T19:59:53.652Z,37.70
2023-03-08T20:02:20.337Z,41.73
2023-03-08T20:04:47.173Z,43.07
2023-03-08T20:07:13.929Z,31.57
2023-03-08T20:09:42.356Z,28.03
2023-03-08T20:12:09.793Z,27.13
2023-03-08T20:14:36.872Z,25.93
2023-03-08T20:17:05.260Z,32.33
2023-03-08T20:19:33.885Z,28.43
2023-03-08T20:22:01.019Z,32.33
2023-03-08T20:24:28.244Z,35.80
2023-03-08T20:26:55.106Z,40.67
2023-03-08T20:29:22.261Z,37.37
2023-03-08T20:31:49.959Z,39.33
2023-03-08T20:34:17.672Z,32.73
2023-03-08T20:36:44.595Z,34.53
2023-03-08T20:39:11.379Z,31.50
2023-03-08T20:41:38.109Z,26.83
2023-03-08T20:44:04.938Z,28.50
2023-03-08T20:46:33.586Z,34.30
2023-03-08T20:49:01.037Z,36.80
2023-03-08T20:51:28.304Z,30.17
2023-03-08T20:53:55.613Z,27.17
2023-03-08T20:56:24.618Z,28.37
2023-03-08T20:58:54.508Z,30.80
2023-03-08T21:01:25.570Z,32.37
2023-03-08T21:03:52.424Z,32.47
2023-03-08T21:06:30.751Z,31.60
2023-03-08T21:08:58.643Z,28.40
2023-03-08T21:11:25.615Z,34.73
2023-03-08T21:13:53.442Z,29.07
2023-03-08T21:16:22.374Z,28.13
2023-03-08T21:18:53.881Z,23.73
2023-03-08T21:21:24.274Z,24.80
2023-03-08T21:23:54.293Z,21.73
2023-03-08T21:26:25.768Z,26.27
2023-03-08T21:28:58.074Z,25.97
2023-03-08T21:31:25.245Z,24.90
2023-03-08T21:33:53.497Z,23.33
2023-03-08T21:36:20.596Z,23.80
2023-03-08T21:38:55.995Z,26.20
2023-03-08T21:41:25.828Z,23.93
2023-03-08T21:43:52.747Z,21.70
2023-03-08T21:46:20.227Z,21.97
2023-03-08T21:48:47.499Z,23.50
2023-03-08T21:51:14.860Z,19.73
2023-03-08T21:53:43.082Z,22.40
2023-03-08T21:56:15.587Z,21.57
2023-03-08T21:58:43.450Z,20.63
2023-03-08T22:01:29.246Z,17.57
2023-03-08T22:03:56.645Z,20.67
2023-03-08T22:06:23.795Z,23.10
2023-03-08T22:08:50.857Z,19.90
2023-03-08T22:11:19.293Z,21.47
2023-03-08T22:13:54.942Z,20.43
2023-03-08T22:16:21.830Z,17.37
2023-03-08T22:18:53.044Z,21.17
2023-03-08T22:21:20.429Z,18.90
2023-03-08T22:23:51.583Z,19.37
2023-03-08T22:26:19.506Z,22.03
2023-03-08T22:28:46.621Z,15.77
2023-03-08T22:31:16.593Z,21.63
2023-03-08T22:33:43.889Z,21.40
2023-03-08T22:36:12.891Z,13.53
2023-03-08T22:38:40.434Z,14.73
2023-03-08T22:41:27.039Z,12.77
2023-03-08T22:43:54.040Z,15.03
2023-03-08T22:46:24.874Z,15.03
2023-03-08T22:48:52.677Z,17.93
2023-03-08T22:51:21.388Z,20.97
2023-03-08T22:53:48.501Z,17.77
2023-03-08T22:56:29.571Z,18.97
2023-03-08T22:58:57.179Z,17.00
2023-03-08T23:01:24.853Z,15.37
2023-03-08T23:03:56.699Z,16.00
2023-03-08T23:06:28.023Z,18.40
2023-03-08T23:08:59.314Z,17.90
2023-03-08T23:11:27.027Z,20.20
2023-03-08T23:13:54.614Z,22.03
2023-03-08T23:16:21.744Z,17.57
2023-03-08T23:18:50.745Z,14.43
2023-03-08T23:21:19.593Z,17.37
2023-03-08T23:27:29.103Z,16.50
2023-03-08T23:29:56.342Z,16.53
2023-03-08T23:32:23.205Z,15.63
2023-03-08T23:34:50.676Z,20.77
2023-03-08T23:37:17.547Z,22.03
2023-03-08T23:39:44.458Z,15.93
2023-03-08T23:42:11.203Z,20.40
2023-03-08T23:44:38.193Z,15.63
2023-03-08T23:47:05.071Z,17.17
2023-03-08T23:49:31.815Z,17.67
2023-03-08T23:51:58.537Z,21.63
2023-03-08T23:54:25.396Z,17.80
2023-03-08T23:56:52.191Z,19.27
2023-03-08T23:59:21.700Z,17.60
